createdAt,value
2022-12-15T00:02:18.409Z,31.13
2022-12-15T00:05:03.730Z,35.45
2022-12-15T00:07:48.985Z,32.10
2022-12-15T00:10:34.522Z,32.88
2022-12-15T00:13:20.054Z,33.05
2022-12-15T00:16:07.170Z,28.92
2022-12-15T00:18:52.880Z,35.53
2022-12-15T00:21:38.417Z,28.60
2022-12-15T00:24:24.410Z,31.30
2022-12-15T00:27:09.908Z,30.83
2022-12-15T00:29:55.516Z,31.23
2022-12-15T00:32:41.554Z,33.03
2022-12-15T00:35:26.970Z,35.70
2022-12-15T00:38:12.432Z,32.60
2022-12-15T00:40:39.227Z,30.95
2022-12-15T00:43:06.164Z,31.48
2022-12-15T00:45:51.932Z,32.40
2022-12-15T00:48:18.739Z,32.33
2022-12-15T00:50:54.547Z,31.20
2022-12-15T00:53:40.912Z,32.45
2022-12-15T00:56:27.120Z,35.17
2022-12-15T00:59:13.523Z,33.83
2022-12-15T01:01:59.265Z,34.00
2022-12-15T01:04:44.824Z,33.30
2022-12-15T01:07:30.393Z,34.95
2022-12-15T01:10:15.826Z,33.10
2022-12-15T01:13:01.995Z,28.10
2022-12-15T01:15:47.589Z,28.77
2022-12-15T01:18:32.925Z,32.50
2022-12-15T01:21:02.495Z,27.02
2022-12-15T01:23:31.531Z,31.92
2022-12-15T01:25:58.718Z,31.35
2022-12-15T01:28:25.546Z,33.75
2022-12-15T01:30:52.648Z,31.40
2022-12-15T01:33:20.380Z,32.38
2022-12-15T01:35:59.442Z,29.92
2022-12-15T01:38:27.623Z,31.48
2022-12-15T01:41:03.739Z,32.28
2022-12-15T01:43:35.215Z,29.60
2022-12-15T01:46:07.806Z,29.08
2022-12-15T01:48:42.971Z,29.73
2022-12-15T01:51:18.770Z,27.15
2022-12-15T01:54:16.625Z,29.02
2022-12-15T01:56:49.121Z,27.10
2022-12-15T01:59:23.958Z,31.02
2022-12-15T02:01:51.020Z,28.27
2022-12-15T02:04:20.767Z,26.70
2022-12-15T02:06:47.587Z,25.13
2022-12-15T02:09:14.981Z,26.55
2022-12-15T02:11:57.383Z,27.23
2022-12-15T02:14:38.811Z,26.33
2022-12-15T02:17:42.744Z,28.50
2022-12-15T02:20:47.252Z,29.88
2022-12-15T02:23:41.287Z,27.92
2022-12-15T02:26:45.760Z,29.08
2022-12-15T02:29:38.152Z,30.27
2022-12-15T02:32:15.141Z,28.90
2022-12-15T02:34:58.658Z,33.17
2022-12-15T02:37:32.170Z,30.90
2022-12-15T02:39:59.059Z,32.25
2022-12-15T02:42:28.938Z,28.40
2022-12-15T02:45:08.179Z,29.00
2022-12-15T02:47:46.024Z,29.83
2022-12-15T02:50:36.861Z,32.90
2022-12-15T02:53:12.635Z,33.33
2022-12-15T02:55:39.464Z,31.98
2022-12-15T02:58:12.357Z,33.60
2022-12-15T03:00:44.420Z,33.30
2022-12-15T03:03:13.808Z,31.42
2022-12-15T03:05:40.984Z,31.20
2022-12-15T03:08:09.251Z,32.83
2022-12-15T03:10:36.078Z,30.65
2022-12-15T03:13:02.897Z,32.78
2022-12-15T03:15:35.025Z,33.85
2022-12-15T03:18:02.203Z,32.75
2022-12-15T03:20:28.988Z,36.80
2022-12-15T03:22:55.790Z,36.53
2022-12-15T03:25:22.599Z,36.20
2022-12-15T03:27:49.385Z,36.58
2022-12-15T03:30:16.245Z,37.67
2022-12-15T03:32:43.076Z,34.05
2022-12-15T03:35:10.011Z,36.45
2022-12-15T03:37:36.799Z,40.50
2022-12-15T03:40:03.789Z,35.45
2022-12-15T03:42:48.593Z,34.55
2022-12-15T03:45:24.276Z,32.83
2022-12-15T03:47:52.426Z,39.45
2022-12-15T03:50:25.851Z,32.35
2022-12-15T03:52:54.455Z,35.85
2022-12-15T03:55:22.393Z,33.47
2022-12-15T03:57:50.217Z,32.67
2022-12-15T04:00:18.687Z,35.35
2022-12-15T04:02:46.497Z,36.65
2022-12-15T04:05:25.758Z,34.10
2022-12-15T04:07:53.919Z,40.60
2022-12-15T04:10:21.155Z,36.35
2022-12-15T04:12:47.973Z,35.03
2022-12-15T04:15:15.002Z,35.83
2022-12-15T04:17:42.246Z,34.85
2022-12-15T04:20:09.547Z,39.83
2022-12-15T04:22:44.701Z,34.83
2022-12-15T04:25:36.218Z,38.75
2022-12-15T04:28:21.702Z,41.92
2022-12-15T04:31:11.021Z,39.28
2022-12-15T04:33:59.841Z,38.58
2022-12-15T04:36:45.924Z,37.95
2022-12-15T04:39:31.320Z,39.25
2022-12-15T04:42:19.395Z,37.70
2022-12-15T04:45:06.526Z,40.55
2022-12-15T04:47:52.196Z,42.17
2022-12-15T04:50:37.957Z,37.65
2022-12-15T04:53:31.430Z,42.10
2022-12-15T04:56:18.825Z,39.80
2022-12-15T04:59:05.084Z,37.25
2022-12-15T05:01:51.292Z,41.92
2022-12-15T05:04:36.650Z,38.67
2022-12-15T05:07:22.474Z,39.25
2022-12-15T05:10:14.312Z,44.08
2022-12-15T05:13:00.672Z,38.33
2022-12-15T05:15:46.191Z,39.72
2022-12-15T05:18:31.516Z,41.60
2022-12-15T05:21:17.652Z,42.60
2022-12-15T05:24:03.131Z,41.45
2022-12-15T05:26:52.670Z,41.05
2022-12-15T05:29:39.549Z,39.85
2022-12-15T05:32:07.912Z,38.53
2022-12-15T05:34:37.135Z,39.97
2022-12-15T05:37:05.058Z,37.88
2022-12-15T05:39:32.167Z,37.45
2022-12-15T05:41:59.234Z,38.00
2022-12-15T05:44:26.533Z,40.92
2022-12-15T05:46:53.416Z,40.45
2022-12-15T05:49:20.801Z,38.28
2022-12-15T05:51:48.362Z,41.58
2022-12-15T05:54:19.725Z,38.53
2022-12-15T05:56:47.201Z,36.80
2022-12-15T05:59:19.061Z,39.28
2022-12-15T06:01:46.129Z,39.97
2022-12-15T06:04:13.340Z,32.10
2022-12-15T06:06:41.174Z,37.67
2022-12-15T06:09:08.320Z,39.58
2022-12-15T06:11:35.297Z,40.55
2022-12-15T06:14:02.305Z,39.20
2022-12-15T06:16:29.435Z,39.70
2022-12-15T06:18:59.233Z,44.78
2022-12-15T06:21:35.490Z,38.35
2022-12-15T06:24:03.901Z,32.80
2022-12-15T06:26:37.059Z,37.13
2022-12-15T06:29:06.934Z,33.63
2022-12-15T06:31:34.447Z,36.60
2022-12-15T06:34:04.820Z,35.95
2022-12-15T06:36:31.875Z,39.75
2022-12-15T06:39:00.718Z,41.00
2022-12-15T06:41:29.717Z,39.08
2022-12-15T06:43:57.368Z,38.72
2022-12-15T06:46:26.800Z,38.00
2022-12-15T06:48:53.919Z,38.38
2022-12-15T06:51:20.791Z,42.65
2022-12-15T06:53:54.151Z,39.55
2022-12-15T06:56:23.218Z,37.78
2022-12-15T06:58:54.777Z,39.78
2022-12-15T07:01:23.978Z,38.55
2022-12-15T07:03:52.493Z,38.17
2022-12-15T07:06:19.680Z,45.88
2022-12-15T07:08:53.923Z,38.80
2022-12-15T07:11:22.361Z,43.13
2022-12-15T07:13:50.849Z,39.40
2022-12-15T07:16:18.400Z,39.35
2022-12-15T07:18:47.258Z,38.97
2022-12-15T07:21:14.299Z,41.50
2022-12-15T07:23:57.526Z,41.63
2022-12-15T07:26:25.330Z,41.13
2022-12-15T07:28:53.588Z,40.40
2022-12-15T07:31:23.360Z,38.13
2022-12-15T07:33:52.091Z,37.97
2022-12-15T07:36:21.680Z,36.47
2022-12-15T07:38:50.365Z,42.83
2022-12-15T07:41:18.583Z,37.97
2022-12-15T07:43:46.622Z,37.95
2022-12-15T07:46:14.047Z,42.22
2022-12-15T07:48:40.944Z,42.35
2022-12-15T07:51:15.272Z,39.40
2022-12-15T07:53:44.458Z,43.50
2022-12-15T07:56:11.316Z,40.72
2022-12-15T07:58:39.048Z,39.83
2022-12-15T08:01:08.405Z,40.17
2022-12-15T08:03:37.527Z,40.38
2022-12-15T08:06:10.317Z,42.13
2022-12-15T08:08:37.614Z,43.08
2022-12-15T08:11:09.547Z,40.10
2022-12-15T08:14:01.925Z,40.28
2022-12-15T08:16:24.623Z,43.85
2022-12-15T08:18:51.499Z,41.63
2022-12-15T08:21:18.388Z,38.35
2022-12-15T08:23:48.363Z,42.25
2022-12-15T08:26:17.409Z,41.35
2022-12-15T08:28:46.091Z,39.80
2022-12-15T08:31:17.422Z,44.22
2022-12-15T08:33:45.537Z,38.05
2022-12-15T08:36:14.013Z,42.40
2022-12-15T08:38:42.474Z,39.20
2022-12-15T08:41:14.426Z,41.50
2022-12-15T08:43:48.059Z,39.20
2022-12-15T08:46:28.104Z,43.30
2022-12-15T08:48:55.798Z,39.92
2022-12-15T08:51:23.824Z,37.72
2022-12-15T08:53:50.929Z,44.15
2022-12-15T08:56:20.046Z,37.55
2022-12-15T08:58:48.200Z,42.10
2022-12-15T09:01:22.784Z,42.13
2022-12-15T09:03:52.011Z,41.95
2022-12-15T09:06:24.818Z,37.97
2022-12-15T09:08:56.623Z,40.42
2022-12-15T09:11:25.211Z,41.67
2022-12-15T09:13:52.238Z,38.85
2022-12-15T09:16:20.660Z,39.72
2022-12-15T09:18:50.193Z,43.30
2022-12-15T09:21:17.964Z,40.55
2022-12-15T09:23:49.303Z,45.45
2022-12-15T09:26:16.263Z,44.33
2022-12-15T09:28:44.014Z,44.88
2022-12-15T09:31:23.606Z,46.60
2022-12-15T09:33:55.306Z,43.60
2022-12-15T09:36:22.868Z,36.95
2022-12-15T09:38:49.977Z,40.35
2022-12-15T09:41:24.456Z,43.83
2022-12-15T09:44:20.512Z,43.17
2022-12-15T09:47:24.339Z,40.55
2022-12-15T09:50:01.185Z,47.30
2022-12-15T09:52:35.806Z,47.00
2022-12-15T09:55:06.532Z,42.42
2022-12-15T09:57:45.041Z,40.83
2022-12-15T10:00:16.152Z,43.78
2022-12-15T10:02:42.937Z,38.53
2022-12-15T10:06:15.528Z,41.60
2022-12-15T10:08:33.043Z,44.97
2022-12-15T10:11:03.958Z,43.25
2022-12-15T10:14:13.660Z,43.30
2022-12-15T10:16:55.039Z,40.88
2022-12-15T10:19:40.748Z,43.15
2022-12-15T10:22:14.293Z,45.53
2022-12-15T10:25:09.208Z,37.58
2022-12-15T10:27:57.176Z,34.95
2022-12-15T10:30:24.670Z,45.80
2022-12-15T10:33:02.545Z,40.17
2022-12-15T10:35:35.056Z,40.50
2022-12-15T10:38:12.653Z,39.55
2022-12-15T10:40:52.197Z,41.00
2022-12-15T10:43:38.233Z,36.67
2022-12-15T10:46:11.087Z,39.85
2022-12-15T10:48:38.047Z,39.28
2022-12-15T10:51:31.532Z,44.17
2022-12-15T10:54:10.455Z,36.85
2022-12-15T10:57:01.765Z,45.25
2022-12-15T10:59:32.843Z,45.65
2022-12-15T11:02:24.390Z,45.88
2022-12-15T11:05:16.377Z,39.97
2022-12-15T11:07:49.383Z,42.72
2022-12-15T11:10:52.995Z,45.33
2022-12-15T11:13:22.283Z,44.97
2022-12-15T11:18:49.610Z,46.33
2022-12-15T11:21:51.809Z,47.90
2022-12-15T11:24:25.937Z,45.17
2022-12-15T11:27:09.894Z,43.83
2022-12-15T11:29:51.915Z,41.70
2022-12-15T11:32:23.879Z,61.47
2022-12-15T11:34:50.870Z,43.30
2022-12-15T11:37:39.385Z,42.20
2022-12-15T11:40:24.959Z,48.20
2022-12-15T11:43:05.467Z,50.55
2022-12-15T11:45:34.967Z,53.78
2022-12-15T11:48:18.166Z,50.22
2022-12-15T11:51:06.384Z,46.95
2022-12-15T11:53:55.200Z,44.10
2022-12-15T11:56:39.955Z,50.35
2022-12-15T11:59:28.210Z,51.00
2022-12-15T12:02:21.343Z,49.15
2022-12-15T12:05:27.873Z,53.53
2022-12-15T12:08:35.833Z,53.63
2022-12-15T12:11:18.698Z,53.03
2022-12-15T12:13:46.563Z,50.00
2022-12-15T12:16:25.848Z,54.22
2022-12-15T12:19:04.335Z,51.60
2022-12-15T12:21:44.009Z,52.95
2022-12-15T12:24:13.885Z,47.00
2022-12-15T12:26:50.252Z,46.45
2022-12-15T12:29:29.196Z,50.20
2022-12-15T12:32:18.262Z,54.78
2022-12-15T12:35:30.690Z,49.63
2022-12-15T12:38:05.283Z,48.35
2022-12-15T12:40:41.556Z,46.33
2022-12-15T12:43:14.197Z,51.08
2022-12-15T12:45:57.504Z,42.28
2022-12-15T12:48:43.246Z,49.95
2022-12-15T12:51:26.585Z,40.17
2022-12-15T12:53:54.447Z,50.03
2022-12-15T12:56:50.376Z,43.85
2022-12-15T12:59:29.423Z,45.38
2022-12-15T13:02:22.100Z,45.65
2022-12-15T13:05:21.903Z,43.35
2022-12-15T13:08:06.850Z,43.20
2022-12-15T13:10:38.620Z,52.13
2022-12-15T13:13:41.946Z,45.42
2022-12-15T13:16:27.069Z,45.25
2022-12-15T13:19:04.754Z,49.05
2022-12-15T13:21:44.116Z,47.22
2022-12-15T13:24:50.758Z,46.53
2022-12-15T13:27:19.379Z,51.75
2022-12-15T13:30:07.490Z,59.17
2022-12-15T13:32:40.093Z,49.45
2022-12-15T13:35:12.823Z,53.17
2022-12-15T13:37:56.533Z,47.45
2022-12-15T13:40:23.856Z,56.40
2022-12-15T13:43:09.564Z,52.63
2022-12-15T13:48:49.289Z,46.15
2022-12-15T13:51:25.782Z,58.15
2022-12-15T13:54:15.473Z,51.00
2022-12-15T13:56:59.678Z,57.25
2022-12-15T13:59:46.691Z,54.67
2022-12-15T14:02:33.181Z,58.55
2022-12-15T14:05:15.090Z,56.08
2022-12-15T14:07:55.016Z,60.58
2022-12-15T14:10:27.437Z,54.40
2022-12-15T14:12:57.194Z,57.05
2022-12-15T14:15:28.676Z,59.35
2022-12-15T14:17:57.793Z,46.10
2022-12-15T14:20:39.669Z,53.78
2022-12-15T14:23:24.193Z,56.03
2022-12-15T14:25:56.945Z,57.40
2022-12-15T14:28:30.531Z,48.47
2022-12-15T14:31:13.069Z,54.55
2022-12-15T14:33:43.725Z,58.13
2022-12-15T14:36:13.757Z,52.78
2022-12-15T14:38:45.085Z,57.17
2022-12-15T14:41:25.350Z,48.05
2022-12-15T14:44:36.717Z,64.70
2022-12-15T14:46:47.962Z,55.88
2022-12-15T14:49:25.749Z,48.08
2022-12-15T14:51:59.503Z,69.05
2022-12-15T14:54:39.552Z,53.22
2022-12-15T14:57:09.293Z,54.42
2022-12-15T14:59:42.680Z,53.92
2022-12-15T15:02:15.170Z,53.67
2022-12-15T15:03:07.606Z,51.65
2022-12-15T15:03:13.700Z,44.55
2022-12-15T15:04:42.119Z,53.83
2022-12-15T15:07:17.922Z,48.08
2022-12-15T15:09:46.505Z,54.00
2022-12-15T15:12:21.700Z,55.90
2022-12-15T15:14:55.571Z,53.38
2022-12-15T15:17:24.736Z,54.28
2022-12-15T15:20:00.823Z,53.22
2022-12-15T15:22:36.614Z,50.55
2022-12-15T15:25:31.622Z,55.60
2022-12-15T15:28:25.528Z,50.72
2022-12-15T15:30:56.245Z,58.63
2022-12-15T15:33:24.984Z,55.67
2022-12-15T15:36:00.895Z,53.42
2022-12-15T15:38:38.147Z,56.63
2022-12-15T15:41:26.418Z,39.05
2022-12-15T15:43:53.220Z,50.28
2022-12-15T15:46:22.705Z,53.03
2022-12-15T15:48:55.565Z,50.25
2022-12-15T15:51:27.143Z,52.17
2022-12-15T15:53:58.041Z,47.38
2022-12-15T15:56:24.842Z,52.95
2022-12-15T15:58:51.660Z,59.10
2022-12-15T16:01:18.682Z,54.85
2022-12-15T16:03:45.643Z,50.85
2022-12-15T16:06:24.201Z,53.25
2022-12-15T16:08:53.870Z,46.35
2022-12-15T16:11:25.533Z,49.85
2022-12-15T16:13:52.557Z,51.22
2022-12-15T16:16:21.844Z,53.22
2022-12-15T16:18:49.335Z,52.85
2022-12-15T16:21:17.957Z,50.70
2022-12-15T16:23:47.716Z,56.03
2022-12-15T16:26:17.326Z,51.20
2022-12-15T16:28:44.140Z,58.95
2022-12-15T16:31:37.363Z,54.17
2022-12-15T16:34:07.939Z,58.15
2022-12-15T16:36:35.314Z,56.20
2022-12-15T16:39:02.444Z,53.13
2022-12-15T16:41:29.273Z,55.78
2022-12-15T16:43:56.064Z,52.30
2022-12-15T16:46:22.948Z,52.20
2022-12-15T16:48:49.846Z,53.65
2022-12-15T16:51:37.113Z,58.25
2022-12-15T16:54:04.640Z,43.80
2022-12-15T16:56:31.584Z,54.25
2022-12-15T16:59:30.805Z,56.85
2022-12-15T17:01:45.678Z,55.45
2022-12-15T17:04:12.915Z,42.15
2022-12-15T17:06:39.930Z,58.67
2022-12-15T17:09:08.855Z,51.20
2022-12-15T17:11:35.936Z,60.08
2022-12-15T17:14:02.992Z,56.67
2022-12-15T17:16:30.014Z,52.72
2022-12-15T17:18:57.020Z,54.42
2022-12-15T17:21:34.999Z,53.60
2022-12-15T17:24:07.761Z,55.25
2022-12-15T17:26:37.046Z,61.58
2022-12-15T17:29:16.889Z,50.22
2022-12-15T17:31:43.838Z,56.80
2022-12-15T17:34:27.747Z,56.08
2022-12-15T17:36:55.569Z,59.25
2022-12-15T17:39:23.226Z,56.13
2022-12-15T17:42:05.841Z,55.95
2022-12-15T17:44:38.218Z,57.63
2022-12-15T17:47:07.399Z,54.65
2022-12-15T17:49:37.769Z,62.70
2022-12-15T17:52:18.763Z,40.83
2022-12-15T17:54:45.686Z,63.22
2022-12-15T17:57:12.944Z,62.03
2022-12-15T17:59:39.893Z,66.47
2022-12-15T18:02:08.528Z,65.60
2022-12-15T18:04:35.389Z,69.30
2022-12-15T18:07:02.815Z,70.90
2022-12-15T18:09:30.325Z,71.15
2022-12-15T18:11:57.184Z,69.60
2022-12-15T18:14:24.027Z,78.10
2022-12-15T18:16:50.901Z,44.35
2022-12-15T18:19:17.716Z,53.78
2022-12-15T18:21:44.591Z,57.72
2022-12-15T18:24:17.475Z,67.43
2022-12-15T18:26:45.578Z,68.28
2022-12-15T18:29:20.226Z,68.72
2022-12-15T18:31:48.654Z,70.70
2022-12-15T18:34:21.287Z,61.08
2022-12-15T18:36:48.379Z,71.35
2022-12-15T18:39:20.796Z,64.55
2022-12-15T18:41:48.570Z,44.33
2022-12-15T18:44:26.962Z,66.45
2022-12-15T18:46:55.110Z,76.72
2022-12-15T18:49:22.924Z,86.13
2022-12-15T18:51:50.330Z,57.47
2022-12-15T18:54:19.958Z,77.28
2022-12-15T18:56:47.151Z,69.90
2022-12-15T18:59:17.068Z,88.30
2022-12-15T19:01:45.850Z,69.90
2022-12-15T19:04:13.192Z,75.80
2022-12-15T19:06:41.083Z,69.47
2022-12-15T19:09:19.129Z,67.90
2022-12-15T19:12:18.593Z,83.00
2022-12-15T19:14:47.634Z,74.95
2022-12-15T19:17:35.895Z,82.47
2022-12-15T19:20:22.798Z,76.93
2022-12-15T19:22:50.205Z,61.80
2022-12-15T19:25:25.413Z,69.10
2022-12-15T19:27:59.245Z,79.38
2022-12-15T19:30:29.276Z,65.57
2022-12-15T19:32:56.284Z,73.25
2022-12-15T19:35:23.258Z,69.90
2022-12-15T19:37:50.465Z,80.82
2022-12-15T19:40:23.912Z,85.00
2022-12-15T19:42:52.943Z,64.35
2022-12-15T19:45:27.905Z,77.13
2022-12-15T19:47:55.232Z,75.80
2022-12-15T19:50:25.134Z,74.78
2022-12-15T19:52:57.142Z,56.03
2022-12-15T19:55:28.426Z,68.90
2022-12-15T19:57:55.550Z,73.63
2022-12-15T20:00:24.844Z,72.03
2022-12-15T20:02:54.705Z,75.68
2022-12-15T20:05:23.830Z,76.00
2022-12-15T20:07:53.511Z,85.13
2022-12-15T20:10:31.717Z,81.40
2022-12-15T20:13:00.326Z,67.25
2022-12-15T20:15:27.373Z,71.97
2022-12-15T20:17:57.597Z,71.07
2022-12-15T20:20:27.912Z,79.78
2022-12-15T20:22:57.638Z,63.53
2022-12-15T20:25:27.731Z,69.38
2022-12-15T20:27:54.790Z,70.50
2022-12-15T20:30:28.439Z,68.07
2022-12-15T20:32:55.288Z,71.85
2022-12-15T20:35:22.557Z,67.47
2022-12-15T20:37:49.987Z,60.13
2022-12-15T20:40:28.911Z,65.82
2022-12-15T20:42:56.280Z,66.97
2022-12-15T20:45:27.137Z,60.63
2022-12-15T20:47:55.881Z,67.75
2022-12-15T20:50:28.010Z,55.42
2022-12-15T20:52:55.337Z,56.13
2022-12-15T20:55:22.403Z,56.78
2022-12-15T20:57:49.727Z,52.53
2022-12-15T21:00:18.296Z,51.03
2022-12-15T21:02:46.458Z,57.58
2022-12-15T21:05:22.315Z,48.75
2022-12-15T21:07:49.883Z,44.92
2022-12-15T21:10:18.801Z,49.63
2022-12-15T21:12:47.756Z,46.42
2022-12-15T21:15:15.911Z,43.38
2022-12-15T21:17:43.152Z,47.15
2022-12-15T21:20:11.842Z,38.47
2022-12-15T21:22:39.124Z,40.40
2022-12-15T21:25:22.347Z,42.28
2022-12-15T21:27:49.123Z,36.60
2022-12-15T21:30:20.572Z,39.92
2022-12-15T21:32:50.880Z,35.88
2022-12-15T21:35:18.955Z,42.33
2022-12-15T21:37:49.602Z,34.05
2022-12-15T21:40:21.709Z,34.15
2022-12-15T21:42:50.015Z,30.75
2022-12-15T21:45:21.744Z,35.83
2022-12-15T21:48:08.527Z,34.90
2022-12-15T21:50:36.669Z,28.88
2022-12-15T21:53:05.097Z,35.92
2022-12-15T21:55:32.360Z,33.05
2022-12-15T21:57:59.218Z,30.10
2022-12-15T22:00:26.342Z,32.47
2022-12-15T22:02:53.915Z,36.83
2022-12-15T22:05:24.463Z,33.75
2022-12-15T22:07:51.746Z,33.50
2022-12-15T22:10:18.639Z,30.63
2022-12-15T22:12:57.550Z,29.13
2022-12-15T22:15:26.321Z,30.98
2022-12-15T22:17:53.120Z,29.55
2022-12-15T22:20:23.009Z,33.55
2022-12-15T22:22:50.694Z,31.08
2022-12-15T22:25:21.163Z,31.63
2022-12-15T22:27:48.578Z,28.63
2022-12-15T22:30:17.884Z,31.13
2022-12-15T22:32:44.808Z,30.73
2022-12-15T22:35:19.839Z,34.45
2022-12-15T22:37:49.456Z,30.05
2022-12-15T22:40:19.528Z,33.10
2022-12-15T22:42:51.129Z,31.13
2022-12-15T22:45:20.708Z,34.75
2022-12-15T22:47:49.189Z,29.95
2022-12-15T22:50:19.979Z,27.63
2022-12-15T22:52:47.679Z,35.35
2022-12-15T22:55:16.485Z,28.67
2022-12-15T22:57:47.203Z,32.33
2022-12-15T23:00:14.504Z,30.48
2022-12-15T23:02:44.890Z,31.83
2022-12-15T23:05:14.727Z,28.33
2022-12-15T23:07:42.196Z,30.40
2022-12-15T23:10:29.623Z,32.08
2022-12-15T23:12:56.473Z,32.38
2022-12-15T23:15:44.352Z,29.00
2022-12-15T23:18:11.370Z,29.73
2022-12-15T23:20:38.432Z,30.20
2022-12-15T23:23:05.399Z,32.55
2022-12-15T23:25:32.411Z,33.28
2022-12-15T23:27:59.232Z,32.35
2022-12-15T23:30:26.329Z,28.60
2022-12-15T23:32:55.365Z,30.20
2022-12-15T23:35:22.624Z,33.28
2022-12-15T23:37:49.534Z,27.75
2022-12-15T23:40:22.079Z,31.90
2022-12-15T23:42:50.052Z,34.88
2022-12-15T23:45:18.344Z,29.55
2022-12-15T23:47:45.273Z,35.28
2022-12-15T23:50:12.176Z,26.80
2022-12-15T23:52:39.039Z,32.33
2022-12-15T23:55:10.217Z,28.67
2022-12-15T23:57:39.318Z,33.08
